Latest Weather Observations for Warburto Point

IDS60801

Issued at 1:35 am CST Friday 3 October 2014 (issued every 30 minutes, with the page automatically refreshed every 10 minutes)

About weather observations | Map of weather stations | Latest weather observations for SA | Other Formats
Station Details ID: 022053 Name: WARBURTO POINT Lat: -34.00 Lon: 137.53 Height: 1.0 m
Data from the previous 72 hours. | See also: Recent months for locations in South Australia
Date/Time
CST
Temp
°C
App
Temp
°C
Dew
Point
Rel
Hum
%
Delta-T
°C
Wind Press
QNH
hPa
Press
MSL
hPa
Rain
since 9 am
mm
Dir
 
Spd
km/h
Gust
km/h
Spd
kts
Gust
kts
03/01:30am - - - - - ESE 11 13 6 7 - - -
03/01:00am - - - - - ESE 13 17 7 9 - - -
03/12:30am - - - - - SE 11 13 6 7 - - -
03/12:00am - - - - - SE 13 17 7 9 - - -
 
Date/Time
CST
Temp
°C
App
Temp
°C
Dew
Point
Rel
Hum
%
Delta-T
°C
Wind Press
QNH
hPa
Press
MSL
hPa
Rain
since 9 am
mm
Dir
 
Spd
km/h
Gust
km/h
Spd
kts
Gust
kts
02/11:30pm - - - - - SSE 13 19 7 10 - - -
02/11:00pm - - - - - SE 11 13 6 7 - - -
02/10:30pm - - - - - SE 9 11 5 6 - - -
02/10:00pm - - - - - SE 11 13 6 7 - - -
02/09:30pm - - - - - ESE 13 15 7 8 - - -
02/09:00pm - - - - - SE 11 13 6 7 - - -
02/08:30pm - - - - - SE 13 17 7 9 - - -
02/08:00pm - - - - - SE 15 17 8 9 - - -
02/07:30pm - - - - - SE 17 20 9 11 - - -
02/07:00pm - - - - - ESE 19 24 10 13 - - -
02/06:30pm - - - - - ESE 17 20 9 11 - - -
02/06:00pm - - - - - SE 13 15 7 8 - - -
02/05:30pm - - - - - SSW 24 30 13 16 - - -
02/05:00pm - - - - - SSW 28 35 15 19 - - -
02/04:30pm - - - - - SSW 32 37 17 20 - - -
02/04:00pm - - - - - SSW 32 39 17 21 - - -
02/03:30pm - - - - - SSW 32 39 17 21 - - -
02/03:00pm - - - - - SSW 28 35 15 19 - - -
02/02:30pm - - - - - SSW 32 37 17 20 - - -
02/02:00pm - - - - - SSW 28 35 15 19 - - -
02/01:30pm - - - - - SSW 28 35 15 19 - - -
02/01:00pm - - - - - SW 28 35 15 19 - - -
02/12:30pm - - - - - SW 26 32 14 17 - - -
02/12:00pm - - - - - SW 24 30 13 16 - - -
02/11:30am - - - - - SW 24 30 13 16 - - -
02/11:00am - - - - - SSW 15 20 8 11 - - -
02/10:30am - - - - - S 15 20 8 11 - - -
02/10:00am - - - - - SSE 17 19 9 10 - - -
02/09:30am - - - - - SSE 19 22 10 12 - - -
02/09:00am - - - - - SE 17 24 9 13 - - -
02/08:30am - - - - - SSE 15 20 8 11 - - -
02/08:00am - - - - - SSE 15 17 8 9 - - -
02/07:30am - - - - - SE 13 15 7 8 - - -
02/07:00am - - - - - SE 11 15 6 8 - - -
02/06:30am - - - - - SE 9 11 5 6 - - -
02/06:00am - - - - - ESE 11 13 6 7 - - -
02/05:30am - - - - - SE 11 13 6 7 - - -
02/05:00am - - - - - ESE 9 11 5 6 - - -
02/04:30am - - - - - ESE 9 11 5 6 - - -
02/04:00am - - - - - ESE 9 13 5 7 - - -
02/03:30am - - - - - SE 13 17 7 9 - - -
02/03:00am - - - - - SE 11 15 6 8 - - -
02/02:30am - - - - - SE 13 15 7 8 - - -
02/02:00am - - - - - SE 13 17 7 9 - - -
02/01:30am - - - - - SE 13 15 7 8 - - -
02/01:00am - - - - - SSE 17 24 9 13 - - -
02/12:30am - - - - - SSE 19 24 10 13 - - -
02/12:00am - - - - - SSE 20 26 11 14 - - -
 
Date/Time
CST
Temp
°C
App
Temp
°C
Dew
Point
Rel
Hum
%
Delta-T
°C
Wind Press
QNH
hPa
Press
MSL
hPa
Rain
since 9 am
mm
Dir
 
Spd
km/h
Gust
km/h
Spd
kts
Gust
kts
01/11:30pm - - - - - SE 20 26 11 14 - - -
01/11:00pm - - - - - SSE 24 30 13 16 - - -
01/10:30pm - - - - - SSE 24 30 13 16 - - -
01/10:00pm - - - - - SSE 24 28 13 15 - - -
01/09:30pm - - - - - SE 20 26 11 14 - - -
01/09:00pm - - - - - SSE 20 28 11 15 - - -
01/08:30pm - - - - - SSE 19 24 10 13 - - -
01/08:00pm - - - - - SSE 20 26 11 14 - - -
01/07:30pm - - - - - SSE 20 30 11 16 - - -
01/07:00pm - - - - - S 30 37 16 20 - - -
01/06:30pm - - - - - S 30 39 16 21 - - -
01/06:00pm - - - - - SSW 32 37 17 20 - - -
01/05:30pm - - - - - SSW 32 39 17 21 - - -
01/05:00pm - - - - - SSW 32 39 17 21 - - -
01/04:30pm - - - - - SSW 32 39 17 21 - - -
01/04:00pm - - - - - SW 32 39 17 21 - - -
01/03:30pm - - - - - SW 30 37 16 20 - - -
01/03:00pm - - - - - SW 33 39 18 21 - - -
01/02:30pm - - - - - SW 33 41 18 22 - - -
01/02:00pm - - - - - SW 32 37 17 20 - - -
01/01:30pm - - - - - SW 28 37 15 20 - - -
01/01:00pm - - - - - SW 24 32 13 17 - - -
01/12:30pm - - - - - SW 24 32 13 17 - - -
01/12:00pm - - - - - SW 24 30 13 16 - - -
01/11:30am - - - - - SW 20 30 11 16 - - -
01/11:00am - - - - - SW 20 26 11 14 - - -
01/10:30am - - - - - S 17 19 9 10 - - -
01/10:00am - - - - - S 17 20 9 11 - - -
01/09:30am - - - - - S 20 28 11 15 - - -
01/09:00am - - - - - S 22 28 12 15 - - -
01/08:30am - - - - - SSE 22 30 12 16 - - -
01/08:00am - - - - - SSE 22 30 12 16 - - -
01/07:30am - - - - - SE 17 22 9 12 - - -
01/07:00am - - - - - ESE 13 15 7 8 - - -
01/06:30am - - - - - E 9 13 5 7 - - -
01/06:00am - - - - - ESE 13 15 7 8 - - -
01/05:30am - - - - - ESE 13 13 7 7 - - -
01/05:00am - - - - - ESE 11 17 6 9 - - -
01/04:30am - - - - - ESE 11 22 6 12 - - -
01/04:00am - - - - - ESE 13 15 7 8 - - -
01/03:30am - - - - - SSE 19 22 10 12 - - -
01/03:00am - - - - - S 20 26 11 14 - - -
01/02:30am - - - - - SSE 22 28 12 15 - - -
01/02:00am - - - - - S 20 26 11 14 - - -
01/01:30am - - - - - SSW 30 39 16 21 - - -
01/01:00am - - - - - SSW 33 43 18 23 - - -
01/12:30am - - - - - SSW 33 41 18 22 - - -
01/12:00am - - - - - SSW 32 39 17 21 - - -
 
Date/Time
CST
Temp
°C
App
Temp
°C
Dew
Point
Rel
Hum
%
Delta-T
°C
Wind Press
QNH
hPa
Press
MSL
hPa
Rain
since 9 am
mm
Dir
 
Spd
km/h
Gust
km/h
Spd
kts
Gust
kts
30/11:30pm - - - - - SSW 30 39 16 21 - - -
30/11:00pm - - - - - S 28 37 15 20 - - -
30/10:30pm - - - - - SW 32 39 17 21 - - -
30/10:00pm - - - - - SSW 33 41 18 22 - - -
30/09:30pm - - - - - SSW 35 43 19 23 - - -
30/09:00pm - - - - - SW 33 43 18 23 - - -
30/08:30pm - - - - - SW 37 52 20 28 - - -
30/08:00pm - - - - - SW 37 50 20 27 - - -
30/07:30pm - - - - - SW 39 52 21 28 - - -
30/07:00pm - - - - - SW 33 46 18 25 - - -
30/06:30pm - - - - - SSW 35 48 19 26 - - -
30/06:00pm - - - - - SSW 43 52 23 28 - - -
30/05:30pm - - - - - SSW 37 48 20 26 - - -
30/05:00pm - - - - - SSW 37 48 20 26 - - -
30/04:30pm - - - - - SSW 37 46 20 25 - - -
30/04:00pm - - - - - SSW 39 46 21 25 - - -
30/03:30pm - - - - - SSW 37 48 20 26 - - -
30/03:00pm - - - - - SSW 33 44 18 24 - - -
30/02:30pm - - - - - SW 28 35 15 19 - - -
30/02:00pm - - - - - SW 30 37 16 20 - - -
30/01:30pm - - - - - WSW 24 33 13 18 - - -
30/01:00pm - - - - - WSW 28 35 15 19 - - -
30/12:30pm - - - - - WSW 28 37 15 20 - - -
30/12:00pm - - - - - WSW 26 37 14 20 - - -
30/11:30am - - - - - W 17 24 9 13 - - -
30/11:00am - - - - - W 24 28 13 15 - - -
30/10:30am - - - - - W 30 35 16 19 - - -
30/10:00am - - - - - W 32 39 17 21 - - -
30/09:30am - - - - - W 35 46 19 25 - - -
30/09:00am - - - - - W 35 48 19 26 - - -
30/08:30am - - - - - WNW 28 33 15 18 - - -
30/08:00am - - - - - NW 28 33 15 18 - - -
30/07:30am - - - - - NW 32 35 17 19 - - -
30/07:00am - - - - - NW 26 30 14 16 - - -
30/06:30am - - - - - NW 28 33 15 18 - - -
30/06:00am - - - - - NW 32 37 17 20 - - -
30/05:30am - - - - - NNW 28 33 15 18 - - -
30/05:00am - - - - - NNW 28 32 15 17 - - -
30/04:30am - - - - - N 28 32 15 17 - - -
30/04:00am - - - - - N 28 33 15 18 - - -
30/03:30am - - - - - N 26 30 14 16 - - -
30/03:00am - - - - - NNE 24 32 13 17 - - -
30/02:30am - - - - - NNE 19 30 10 16 - - -
30/02:00am - - - - - NE 15 17 8 9 - - -

Other Formats:

Comma delimited format used in spreadsheet applications
http://www.bom.gov.au/fwo/IDS60801/IDS60801.94666.axf

JavaScript Object Notation format (JSON) in row-major order
http://www.bom.gov.au/fwo/IDS60801/IDS60801.94666.json